Redwood Natl Park, California
Current Conditions -  °F | °C
As of 7:22 PM on Wednesday 22 Oct 2014 (Local Time) from KCEC Reporting Station
Light Rain Light Rain  
Wind Chill: 59°   Ceiling: 2400
Heat Index: 59°   Visibility: 5mi
Dew Point: 59°   Wind: 20mph
Humidity: 100%   Direction: 160°SSE
Pressure: 29.89"   Gusts: 31mph
Location:  41.48°N, 124.06°W
Report Text: KCEC 230222Z AUTO 16017G27KT 5SM -RA BR SCT016 BKN024 OVC035 15/15 A2989 RMK AO2 PK WND 14035/0204 P0008 T01500150
Loading
Personal Weather Stations






























Interactive Weather Map
Tropical Storm Tracking
New forecast layout! Learn more

10-Day Weather Forecast

Advertisements
Track Severe Weather on mobile